Kingsville Naval Air Station Kingsville US
ICAO: KNQI
IATA: NQI
Category: Medium
Scheduled Services: No

Elevation: 50 ft
TransAlt. 18000 ft.

Airport Communications:
APP:119.9
ATIS:27.62
CLNC DEL:32.84
DEP:26.68
GND:35.24
BASE OPS:27.48
PMSV METRO:34.46
TWR:124.1

KNQI Zoom In..

If Map Doesn't Load, Click Here

Runways:

(A) RW 13L length 8000 ft width 200 ft
---- / hdg 127

(B) RW 13R length 8000 ft width 200 ft
ILS 110.90 / hdg 127

(C) RW 17L length 8000 ft width 200 ft
---- / hdg 172

(D) RW 17R length 8000 ft width 200 ft
---- / hdg 172

(E) RW 31L length 8000 ft width 200 ft
---- / hdg 307

(F) RW 31R length 8000 ft width 200 ft
---- / hdg 307

(G) RW 35L length 8000 ft width 200 ft
---- / hdg 352

(H) RW 35R length 8000 ft width 200 ft
---- / hdg 352

Location; KNQI
Day. 26 / Time. 04.56 Zulu
* Altimeter: 29.95
* Temperature: 28° c. 82.4°f.
* Wind from: 150° Speed 11 kn.
Dewpoint: 25° c.
Visibility: 10 Statute Miles.
Clouds: Few 2000 ft.
Clouds: Scattered 15000 ft.
Clouds: Scattered 25000 ft.

KNQI 260456Z 15011KT 10SM FEW020 SCT150 SCT250 28/25 A2995 RMK SLP137 LAST T02780250


Wind From 150°
Speed 11 kn.

 
 
jpsmedia.com for Web Design worldairports.se 2018   terms of use